Time;durP1;ratioP1;P1;durP2;ratioP2;P2;SDS_P1;SDS_P2;PMS_P1;PMS_P2;Temp;Humidity;BMP_temperature;BMP_pressure;BME280_temperature;BME280_humidity;BME280_pressure;Samples;Min_cycle;Max_cycle;Signal;HPM_P1;HPM_P2
2022/06/19 00:00:44;;;;;;;10.00;7.10;;;;;;;19.19;100.00;100522.41;4986904;28;20133;-78
2022/06/19 00:03:23;;;;;;;9.50;6.85;;;;;;;19.16;100.00;100529.72;5008160;28;20065;-78
2022/06/19 00:05:49;;;;;;;8.43;7.65;;;;;;;19.29;100.00;100541.47;5017127;28;20068;-78
2022/06/19 00:08:16;;;;;;;7.60;6.88;;;;;;;19.20;100.00;100542.88;5006419;28;20042;-78
2022/06/19 00:10:43;;;;;;;8.45;7.65;;;;;;;19.13;100.00;100537.00;4975614;28;20662;-78
2022/06/19 00:13:10;;;;;;;10.00;7.20;;;;;;;19.13;100.00;100537.00;5005963;28;20069;-78
2022/06/19 00:15:36;;;;;;;8.48;7.63;;;;;;;19.08;100.00;100530.16;5017057;28;20109;-78
2022/06/19 00:18:06;;;;;;;7.55;6.85;;;;;;;18.95;100.00;100535.38;5004959;28;20088;-78
2022/06/19 00:20:38;;;;;;;7.47;6.78;;;;;;;18.90;100.00;100524.06;4988200;28;20034;-78
2022/06/19 00:23:05;;;;;;;7.95;6.72;;;;;;;18.93;100.00;100515.00;5006981;28;20119;-80
2022/06/19 00:25:32;;;;;;;8.50;7.18;;;;;;;18.98;100.00;100510.25;4982158;28;20044;-78
2022/06/19 00:27:58;;;;;;;9.73;7.75;;;;;;;18.97;100.00;100509.38;5006008;28;20053;-78
2022/06/19 00:30:25;;;;;;;8.30;7.50;;;;;;;18.88;100.00;100515.25;4996226;28;20046;-79
2022/06/19 00:32:52;;;;;;;8.20;7.03;;;;;;;18.83;100.00;100511.97;5010370;28;20495;-79
2022/06/19 00:35:19;;;;;;;7.95;7.22;;;;;;;18.87;100.00;100505.50;5001302;28;20480;-78
2022/06/19 00:37:47;;;;;;;9.05;7.18;;;;;;;18.81;100.00;100509.38;5008852;28;20038;-79
2022/06/19 00:40:14;;;;;;;8.50;7.47;;;;;;;18.68;100.00;100500.34;5008537;28;20038;-80
2022/06/19 00:42:41;;;;;;;7.65;6.80;;;;;;;18.66;100.00;100501.38;5014411;28;20034;-78
2022/06/19 00:45:32;;;;;;;8.32;6.88;;;;;;;18.71;100.00;100501.97;5006069;28;20511;-78
2022/06/19 00:48:00;;;;;;;7.60;6.90;;;;;;;18.66;100.00;100498.69;5010264;28;20048;-78
2022/06/19 00:50:33;;;;;;;8.05;7.25;;;;;;;18.57;100.00;100494.69;5002153;28;20048;-79
2022/06/19 00:53:00;;;;;;;8.93;6.88;;;;;;;18.51;100.00;100479.88;5004496;28;20962;-79
2022/06/19 00:55:38;;;;;;;7.63;6.93;;;;;;;18.52;100.00;100467.34;4992077;28;20141;-79
2022/06/19 00:58:18;;;;;;;7.95;7.13;;;;;;;18.48;100.00;100461.28;4990274;28;20045;-79
2022/06/19 01:00:47;;;;;;;9.68;7.63;;;;;;;18.45;100.00;100463.28;4988966;28;20056;-78
2022/06/19 01:03:18;;;;;;;9.65;7.80;;;;;;;18.49;100.00;100452.31;4992855;28;20109;-79
2022/06/19 01:05:46;;;;;;;8.20;7.40;;;;;;;18.44;100.00;100450.88;4985849;28;20129;-78
2022/06/19 01:08:13;;;;;;;8.20;7.50;;;;;;;18.43;100.00;100452.69;4996726;28;20046;-78
2022/06/19 01:10:44;;;;;;;8.13;7.35;;;;;;;18.35;100.00;100446.91;5002632;28;20061;-78
2022/06/19 01:13:12;;;;;;;8.20;7.40;;;;;;;18.43;100.00;100449.13;5006448;28;20038;-78
2022/06/19 01:15:39;;;;;;;9.98;7.75;;;;;;;18.40;100.00;100451.97;5011628;28;21807;-78
2022/06/19 01:18:08;;;;;;;9.15;7.15;;;;;;;18.45;100.00;100457.94;5011131;28;20046;-78
2022/06/19 01:20:36;;;;;;;8.95;7.82;;;;;;;18.43;100.00;100455.34;4999186;28;20044;-78
2022/06/19 01:23:18;;;;;;;10.70;8.07;;;;;;;18.39;100.00;100453.78;4994233;28;20119;-78
2022/06/19 01:25:45;;;;;;;10.90;7.60;;;;;;;18.20;100.00;100445.06;5022751;28;20045;-78
2022/06/19 01:31:07;;;;;;;8.25;7.45;;;;;;;18.05;100.00;100433.41;5012203;28;20527;-78
2022/06/19 01:33:44;;;;;;;8.68;7.57;;;;;;;18.01;100.00;100429.19;5009225;28;20555;-79
2022/06/19 01:36:12;;;;;;;8.13;7.05;;;;;;;18.01;100.00;100426.50;5028149;28;20049;-78
2022/06/19 01:38:42;;;;;;;8.43;7.57;;;;;;;18.07;100.00;100418.13;5008963;28;20037;-77
2022/06/19 01:41:15;;;;;;;11.77;8.10;;;;;;;18.08;100.00;100414.53;5003336;28;20049;-79
2022/06/19 01:43:42;;;;;;;10.20;8.40;;;;;;;18.13;100.00;100414.28;5008784;28;20062;-78
2022/06/19 01:46:09;;;;;;;8.77;7.95;;;;;;;18.10;100.00;100409.09;5013139;28;20695;-79
2022/06/19 01:48:37;;;;;;;9.18;8.20;;;;;;;18.08;100.00;100397.63;5007681;28;20035;-77
2022/06/19 01:51:05;;;;;;;8.52;7.65;;;;;;;17.89;100.00;100400.44;4992312;28;20057;-77
2022/06/19 01:53:38;;;;;;;11.32;8.55;;;;;;;17.87;100.00;100395.19;5013367;28;20094;-76
2022/06/19 01:56:06;;;;;;;;;;;;;;;17.82;100.00;100394.56;4980579;28;20042;-77
2022/06/19 01:58:33;;;;;;;9.40;7.95;;;;;;;17.81;100.00;100392.84;4978569;28;20366;-77
2022/06/19 02:01:05;;;;;;;8.98;7.30;;;;;;;17.74;100.00;100383.47;4993373;28;20104;-79
2022/06/19 02:03:46;;;;;;;8.73;7.93;;;;;;;17.70;100.00;100381.88;5025153;28;20108;-78
2022/06/19 02:06:17;;;;;;;9.00;7.57;;;;;;;17.79;100.00;100377.84;5009086;28;20117;-78
2022/06/19 02:08:44;;;;;;;10.30;7.90;;;;;;;17.72;100.00;100382.66;4988834;28;20038;-77
2022/06/19 02:11:11;;;;;;;8.45;7.57;;;;;;;17.64;100.00;100379.50;4980462;28;20046;-78
2022/06/19 02:13:39;;;;;;;11.55;8.45;;;;;;;17.56;100.00;100382.59;4981855;28;20172;-77
2022/06/19 02:16:09;;;;;;;8.57;7.65;;;;;;;17.52;100.00;100382.84;5011884;28;20042;-78
2022/06/19 02:18:39;;;;;;;8.80;7.05;;;;;;;17.44;100.00;100377.91;4979872;28;20034;-77
2022/06/19 02:21:07;;;;;;;21.38;9.57;;;;;;;17.47;100.00;100372.41;5008214;28;20503;-77
2022/06/19 02:23:36;;;;;;;24.30;9.90;;;;;;;17.48;100.00;100362.56;5003946;28;20042;-77
2022/06/19 02:26:05;;;;;;;23.48;9.70;;;;;;;17.44;100.00;100362.75;4991132;28;20065;-76
2022/06/19 02:28:35;;;;;;;35.33;12.63;;;;;;;17.48;100.00;100363.44;4992530;28;20044;-77
2022/06/19 02:31:03;;;;;;;22.83;9.48;;;;;;;17.57;100.00;100351.38;5009766;28;20130;-77
2022/06/19 02:33:31;;;;;;;13.00;8.43;;;;;;;17.51;100.00;100357.09;5008589;28;20038;-76
2022/06/19 02:35:57;;;;;;;10.77;8.00;;;;;;;17.49;100.00;100341.16;5002927;28;20038;-77
2022/06/19 02:38:24;;;;;;;14.40;8.77;;;;;;;17.41;100.00;100338.88;4994694;28;20042;-78
2022/06/19 02:41:03;;;;;;;12.80;8.02;;;;;;;17.43;100.00;100338.81;5009391;28;20054;-75
2022/06/19 02:43:32;;;;;;;11.07;7.97;;;;;;;17.56;100.00;100333.63;5009889;28;20038;-76
2022/06/19 02:46:02;;;;;;;12.80;8.52;;;;;;;17.48;100.00;100334.06;5009039;28;20499;-76
2022/06/19 02:48:30;;;;;;;12.98;7.93;;;;;;;17.49;100.00;100332.25;4989609;28;20046;-80
2022/06/19 02:51:00;;;;;;;13.85;7.88;;;;;;;17.37;100.00;100323.09;4980535;28;20049;-78
2022/06/19 02:53:27;;;;;;;14.10;8.70;;;;;;;17.26;100.00;100323.69;5008268;28;20104;-80
2022/06/19 02:55:54;;;;;;;11.30;7.45;;;;;;;17.27;100.00;100311.19;5014029;28;20534;-79
2022/06/19 02:58:21;;;;;;;7.85;6.93;;;;;;;17.31;100.00;100312.75;4992071;28;20479;-78
2022/06/19 03:00:50;;;;;;;9.27;7.30;;;;;;;17.24;100.00;100298.03;4998286;28;20039;-78
2022/06/19 03:03:29;;;;;;;9.05;7.05;;;;;;;17.23;100.00;100289.13;5007989;28;20573;-79
2022/06/19 03:05:56;;;;;;;9.35;7.57;;;;;;;17.34;100.00;100291.22;4993870;28;20029;-79
2022/06/19 03:08:22;;;;;;;8.40;6.95;;;;;;;17.39;100.00;100283.81;4995527;28;20041;-79
2022/06/19 03:10:49;;;;;;;7.57;6.78;;;;;;;17.43;100.00;100282.72;4988642;28;20064;-79
2022/06/19 03:13:20;;;;;;;9.02;6.18;;;;;;;17.39;100.00;100268.66;4994583;28;20415;-78
2022/06/19 03:15:47;;;;;;;8.38;6.60;;;;;;;17.54;100.00;100256.28;4996875;28;20040;-79
2022/06/19 03:18:14;;;;;;;7.93;6.53;;;;;;;17.59;100.00;100248.88;5014949;28;20041;-79
2022/06/19 03:20:40;;;;;;;7.70;6.45;;;;;;;17.61;100.00;100249.66;5008237;28;20060;-77
2022/06/19 03:23:07;;;;;;;6.90;6.03;;;;;;;17.61;100.00;100240.78;4992332;28;20240;-77
2022/06/19 03:25:34;;;;;;;8.55;6.22;;;;;;;17.69;100.00;100228.69;5000752;28;20038;-78
2022/06/19 03:28:01;;;;;;;7.13;5.95;;;;;;;17.77;100.00;100235.47;5011778;28;20494;-77
2022/06/19 03:30:28;;;;;;;6.22;5.65;;;;;;;17.90;100.00;100225.78;5008899;28;20060;-77
2022/06/19 03:32:55;;;;;;;6.50;5.85;;;;;;;18.02;100.00;100227.75;5009453;28;20041;-79
2022/06/19 03:35:22;;;;;;;6.55;5.97;;;;;;;17.98;100.00;100228.88;5008871;28;20045;-80
2022/06/19 03:37:48;;;;;;;8.68;6.65;;;;;;;18.12;100.00;100215.56;5008455;28;20030;-79
2022/06/19 03:40:15;;;;;;;7.63;6.10;;;;;;;18.24;100.00;100213.97;5006353;28;20034;-78
2022/06/19 03:42:42;;;;;;;6.90;5.80;;;;;;;18.27;100.00;100203.13;5010377;28;20040;-79
2022/06/19 03:45:08;;;;;;;9.20;5.80;;;;;;;18.33;100.00;100199.19;5022449;28;20036;-77
2022/06/19 03:47:35;;;;;;;6.57;5.85;;;;;;;18.30;100.00;100202.91;5007519;28;20089;-79
2022/06/19 03:50:03;;;;;;;6.63;5.45;;;;;;;18.39;100.00;100193.47;4991387;28;20057;-77
2022/06/19 03:52:30;;;;;;;6.57;5.97;;;;;;;18.54;100.00;100188.06;5005275;28;20042;-77
2022/06/19 03:54:56;;;;;;;7.05;5.45;;;;;;;18.62;100.00;100189.41;5003159;28;20042;-78
2022/06/19 03:57:24;;;;;;;6.85;5.32;;;;;;;18.65;100.00;100178.50;4991430;28;20096;-76
2022/06/19 03:59:51;;;;;;;6.28;5.70;;;;;;;18.73;100.00;100170.91;5007609;28;20101;-79
2022/06/19 04:02:18;;;;;;;6.60;5.55;;;;;;;18.79;100.00;100162.50;5009102;28;20038;-79
2022/06/19 04:04:45;;;;;;;5.80;5.10;;;;;;;18.82;100.00;100157.81;5005581;28;20042;-79
2022/06/19 04:07:14;;;;;;;6.45;5.35;;;;;;;18.91;100.00;100159.06;4993083;28;20042;-79
2022/06/19 04:09:42;;;;;;;6.20;5.40;;;;;;;18.99;100.00;100148.72;5025847;28;20411;-77
2022/06/19 04:12:09;;;;;;;7.80;5.78;;;;;;;19.02;100.00;100139.66;5014038;28;20046;-78
2022/06/19 04:14:36;;;;;;;7.20;6.03;;;;;;;19.07;100.00;100134.84;4988404;28;20039;-78
2022/06/19 04:17:05;;;;;;;6.82;5.30;;;;;;;19.12;100.00;100125.56;5010074;28;20630;-80
2022/06/19 04:19:32;;;;;;;7.82;5.60;;;;;;;19.17;100.00;100122.63;4975331;28;20045;-77
2022/06/19 04:21:58;;;;;;;7.70;6.05;;;;;;;19.22;100.00;100124.97;5008149;28;20045;-79
2022/06/19 04:24:25;;;;;;;7.28;6.22;;;;;;;19.29;100.00;100118.28;4998025;28;20121;-80
2022/06/19 04:26:52;;;;;;;8.38;5.15;;;;;;;19.38;100.00;100109.63;5012535;28;20444;-79
2022/06/19 04:29:21;;;;;;;6.13;5.50;;;;;;;19.46;99.26;100111.81;4995949;28;20646;-78
2022/06/19 04:31:48;;;;;;;6.20;5.65;;;;;;;19.56;98.72;100115.59;5013803;28;20128;-77
2022/06/19 04:34:15;;;;;;;6.63;5.50;;;;;;;19.60;97.77;100106.44;5012234;28;20053;-79
2022/06/19 04:36:41;;;;;;;7.35;6.32;;;;;;;19.79;97.28;100100.69;4991814;28;20049;-79
2022/06/19 04:39:09;;;;;;;7.70;5.90;;;;;;;19.91;96.56;100095.34;5008498;28;20052;-77
2022/06/19 04:41:39;;;;;;;7.57;5.38;;;;;;;20.03;95.66;100088.31;5013071;28;20061;-79
2022/06/19 04:44:08;;;;;;;7.00;6.10;;;;;;;20.14;94.46;100085.72;5009488;28;20045;-78
2022/06/19 04:46:35;;;;;;;6.05;5.45;;;;;;;20.19;94.59;100102.38;4997447;28;20057;-79
2022/06/19 04:49:02;;;;;;;6.07;5.45;;;;;;;20.23;93.33;100100.31;4993683;28;20046;-79
2022/06/19 04:51:37;;;;;;;8.48;5.18;;;;;;;20.24;93.89;100104.72;5017975;28;20128;-77
2022/06/19 04:54:03;;;;;;;6.30;5.70;;;;;;;20.38;92.94;100107.31;4994998;28;20084;-78
2022/06/19 04:56:30;;;;;;;6.00;5.40;;;;;;;20.40;92.41;100110.75;4997783;28;20038;-78
2022/06/19 04:58:57;;;;;;;5.65;5.15;;;;;;;20.50;91.77;100113.66;5003833;28;20058;-77
2022/06/19 05:01:26;;;;;;;6.53;5.65;;;;;;;20.62;92.43;100098.53;4993738;28;20042;-78
2022/06/19 05:03:56;;;;;;;6.13;5.53;;;;;;;20.63;90.92;100103.78;5012576;28;20038;-79
2022/06/19 05:06:22;;;;;;;5.85;5.15;;;;;;;20.77;88.61;100105.50;5011384;28;20034;-77
2022/06/19 05:08:49;;;;;;;6.10;5.50;;;;;;;20.80;88.86;100094.53;5010986;28;20046;-77
2022/06/19 05:11:17;;;;;;;5.90;5.35;;;;;;;20.89;88.44;100082.28;5010349;28;20034;-80
2022/06/19 05:13:44;;;;;;;6.60;5.13;;;;;;;20.94;89.02;100074.75;5010295;28;20034;-79
2022/06/19 05:16:14;;;;;;;7.18;5.43;;;;;;;21.19;85.89;100069.28;5008296;28;20034;-79
2022/06/19 05:18:41;;;;;;;5.85;5.35;;;;;;;21.57;83.62;100058.38;4998097;28;20480;-78
2022/06/19 05:21:08;;;;;;;5.50;5.03;;;;;;;21.61;82.33;100053.66;5013105;28;20049;-78
2022/06/19 05:23:39;;;;;;;5.85;5.28;;;;;;;21.76;83.62;100047.06;4993035;28;20038;-79
2022/06/19 05:26:13;;;;;;;6.80;5.50;;;;;;;21.97;81.86;100043.72;4980592;28;20038;-77
2022/06/19 05:28:48;;;;;;;8.93;6.05;;;;;;;22.00;80.71;100038.09;5005917;28;20041;-76
2022/06/19 05:31:15;;;;;;;6.55;5.95;;;;;;;21.97;79.96;100032.97;4999878;28;20038;-78
2022/06/19 05:33:41;;;;;;;6.30;5.60;;;;;;;21.88;79.89;100023.78;5008551;28;20041;-77
2022/06/19 05:36:08;;;;;;;7.00;6.03;;;;;;;22.16;80.50;100023.38;5014345;28;20056;-78
2022/06/19 05:38:35;;;;;;;8.40;6.25;;;;;;;22.44;79.94;100010.41;5004673;28;20549;-78
2022/06/19 05:41:02;;;;;;;9.15;6.28;;;;;;;22.97;73.95;99998.00;5020249;28;20053;-77
2022/06/19 05:43:31;;;;;;;7.07;5.97;;;;;;;24.34;67.21;100014.25;5014433;28;20034;-79
2022/06/19 05:46:01;;;;;;;7.57;6.03;;;;;;;25.44;62.11;99993.47;4995118;28;20511;-77
2022/06/19 05:48:28;;;;;;;7.63;6.25;;;;;;;26.35;58.81;99994.72;4989359;28;21569;-78
2022/06/19 05:50:59;;;;;;;8.50;6.30;;;;;;;26.91;55.91;99991.91;4992524;28;20042;-78
2022/06/19 05:53:28;;;;;;;7.13;6.47;;;;;;;27.00;55.98;99984.72;5007877;28;20042;-78
2022/06/19 05:55:55;;;;;;;9.13;7.10;;;;;;;26.91;54.90;99991.91;4993369;28;20724;-78
2022/06/19 05:58:22;;;;;;;7.57;6.13;;;;;;;26.86;55.14;99990.66;4996016;28;20052;-79
2022/06/19 06:00:49;;;;;;;8.75;6.38;;;;;;;27.68;53.20;99974.22;5020796;28;20034;-78
2022/06/19 06:03:17;;;;;;;7.00;6.30;;;;;;;28.00;52.05;99976.31;4985222;28;20042;-78
2022/06/19 06:05:44;;;;;;;8.57;7.53;;;;;;;27.87;51.21;99964.16;4998589;28;20042;-78
2022/06/19 06:08:12;;;;;;;7.88;7.07;;;;;;;27.84;52.46;99965.34;5006084;28;20039;-80
2022/06/19 06:10:48;;;;;;;8.35;6.70;;;;;;;27.99;52.21;99963.72;4990284;28;20038;-79
2022/06/19 06:13:14;;;;;;;7.60;6.85;;;;;;;27.75;53.08;99959.00;5002371;28;20045;-78
2022/06/19 06:15:41;;;;;;;9.02;6.72;;;;;;;27.47;52.73;99960.94;5007233;28;20038;-79
2022/06/19 06:18:08;;;;;;;20.60;8.23;;;;;;;27.47;53.30;99952.81;5008244;28;20045;-78
2022/06/19 06:20:34;;;;;;;7.97;7.25;;;;;;;27.37;53.63;99953.91;5006803;28;20439;-78
2022/06/19 06:23:01;;;;;;;7.80;7.07;;;;;;;26.99;54.07;99941.47;5007897;28;20034;-78
2022/06/19 06:25:28;;;;;;;8.88;7.45;;;;;;;27.17;54.99;99936.97;5001006;28;20398;-77
2022/06/19 06:27:54;;;;;;;8.85;7.57;;;;;;;27.26;55.22;99927.03;5014694;28;20041;-78
2022/06/19 06:30:21;;;;;;;10.82;7.30;;;;;;;27.49;54.27;99922.78;5004322;28;20061;-80
2022/06/19 06:32:48;;;;;;;8.02;7.22;;;;;;;27.78;53.72;99925.25;5011993;28;20448;-80
2022/06/19 06:35:17;;;;;;;7.28;6.68;;;;;;;27.95;53.24;99915.34;5011611;28;20044;-82
2022/06/19 06:37:44;;;;;;;8.23;6.60;;;;;;;28.10;52.72;99910.16;5022201;28;20048;-80
2022/06/19 06:40:11;;;;;;;8.60;7.72;;;;;;;28.10;51.41;99910.16;5015111;28;20034;-79
2022/06/19 06:42:38;;;;;;;10.23;7.53;;;;;;;27.99;51.42;99908.56;5012147;28;20052;-79
2022/06/19 06:45:07;;;;;;;9.23;7.60;;;;;;;28.15;51.88;99910.50;5012178;28;20069;-78
2022/06/19 06:47:33;;;;;;;8.35;7.40;;;;;;;28.48;51.66;99901.50;4997482;28;20048;-79
2022/06/19 06:50:00;;;;;;;8.65;7.80;;;;;;;28.37;51.62;99904.53;5011236;28;20038;-80
2022/06/19 06:52:27;;;;;;;9.25;7.45;;;;;;;28.63;49.77;99895.44;5013497;28;20048;-80
2022/06/19 06:54:53;;;;;;;7.93;6.95;;;;;;;28.86;50.06;99901.97;5010914;28;20030;-78
2022/06/19 06:57:20;;;;;;;9.07;7.78;;;;;;;29.15;49.75;99902.34;5019666;28;20045;-79
2022/06/19 06:59:48;;;;;;;11.38;7.22;;;;;;;29.37;49.45;99889.09;4996318;28;20760;-79
2022/06/19 07:02:14;;;;;;;10.32;8.30;;;;;;;29.50;47.83;99889.44;4988259;28;20038;-79
2022/06/19 07:04:41;;;;;;;7.88;7.07;;;;;;;29.59;48.98;99882.94;5005021;28;20120;-79
2022/06/19 07:07:08;;;;;;;12.93;7.22;;;;;;;29.63;47.82;99889.78;5002726;28;20054;-79
2022/06/19 07:09:34;;;;;;;8.07;6.68;;;;;;;29.90;47.16;99895.81;5008791;28;20049;-79
2022/06/19 07:12:02;;;;;;;10.70;7.28;;;;;;;30.23;47.18;99907.50;5011131;28;20136;-78
2022/06/19 07:14:29;;;;;;;10.30;7.47;;;;;;;30.39;43.93;99904.69;5007401;28;20038;-79
2022/06/19 07:16:56;;;;;;;7.45;6.55;;;;;;;30.62;44.71;99914.81;5030130;28;20029;-78
2022/06/19 07:19:23;;;;;;;7.53;6.78;;;;;;;30.76;44.69;99905.88;5005149;28;20108;-79
2022/06/19 07:21:49;;;;;;;9.82;7.00;;;;;;;30.88;42.51;99882.63;5010378;28;20554;-79
2022/06/19 07:24:16;;;;;;;9.07;6.97;;;;;;;31.08;42.69;99891.19;5016283;28;20509;-77
2022/06/19 07:26:45;;;;;;;8.52;7.20;;;;;;;31.33;41.09;99895.44;5009451;28;20124;-78
2022/06/19 07:29:12;;;;;;;8.23;6.95;;;;;;;31.48;42.35;99911.00;5006374;28;20518;-77
2022/06/19 07:31:38;;;;;;;11.48;6.78;;;;;;;31.60;42.02;99906.78;5006706;28;20050;-77
2022/06/19 07:34:05;;;;;;;9.30;7.32;;;;;;;31.42;41.54;99920.78;5005458;28;20995;-80
2022/06/19 07:36:32;;;;;;;9.25;6.93;;;;;;;31.25;41.16;99914.59;5010711;28;20157;-78
2022/06/19 07:38:59;;;;;;;9.77;7.25;;;;;;;31.02;42.20;99892.75;5007841;28;21037;-77
2022/06/19 07:41:26;;;;;;;10.18;7.80;;;;;;;30.94;42.35;99889.22;5023666;28;20067;-77
2022/06/19 07:43:52;;;;;;;10.63;8.02;;;;;;;30.65;43.83;99900.81;5008333;28;20408;-78
2022/06/19 07:46:19;;;;;;;11.13;7.50;;;;;;;30.83;42.74;99904.13;5005062;28;20045;-77
2022/06/19 07:51:32;;;;;;;11.70;7.53;;;;;;;31.00;42.62;99904.88;5012678;28;20041;-80
2022/06/19 07:53:59;;;;;;;9.45;6.82;;;;;;;31.24;42.37;99892.97;5011701;28;20507;-79
2022/06/19 07:56:26;;;;;;;9.57;7.53;;;;;;;31.32;42.52;99881.97;5001130;28;20060;-78
2022/06/19 07:58:54;;;;;;;11.43;7.55;;;;;;;31.70;41.68;99885.53;5006939;28;20562;-76
2022/06/19 08:01:21;;;;;;;336.02;59.55;;;;;;;31.85;41.82;99897.34;5011939;28;20126;-79
2022/06/19 08:03:48;;;;;;;13.85;8.25;;;;;;;32.08;40.67;99896.41;4988676;28;20050;-79
2022/06/19 08:06:17;;;;;;;7.47;6.78;;;;;;;32.08;41.16;99891.78;4990269;28;20050;-79
2022/06/19 08:08:44;;;;;;;9.80;6.80;;;;;;;32.29;41.68;99881.94;5002472;28;20113;-79
2022/06/19 08:11:12;;;;;;;10.88;7.38;;;;;;;32.28;41.70;99869.31;5002741;28;20052;-78
2022/06/19 08:13:39;;;;;;;7.97;7.10;;;;;;;32.19;42.42;99860.38;5005959;28;20460;-79
2022/06/19 08:16:08;;;;;;;10.50;7.68;;;;;;;32.67;40.05;99867.09;5001566;28;20053;-78
2022/06/19 08:18:36;;;;;;;11.40;7.22;;;;;;;32.55;40.24;99856.88;4999830;28;20069;-78
2022/06/19 08:21:03;;;;;;;9.75;7.82;;;;;;;32.52;40.43;99852.63;5012485;28;20042;-79
2022/06/19 08:23:30;;;;;;;8.05;7.28;;;;;;;32.77;40.51;99840.28;5013474;28;20042;-77
2022/06/19 08:25:58;;;;;;;8.85;7.28;;;;;;;32.92;39.07;99826.56;5007933;28;20074;-79
2022/06/19 08:30:54;;;;;;;9.73;7.65;;;;;;;33.25;39.10;99820.53;5006832;23;20043;-80
2022/06/19 08:33:20;;;;;;;10.07;6.95;;;;;;;33.49;37.84;99816.53;5008432;28;20768;-81
2022/06/19 08:35:50;;;;;;;8.57;7.60;;;;;;;33.66;36.75;99815.16;4969661;28;20510;-81
2022/06/19 08:38:25;;;;;;;10.20;7.75;;;;;;;33.65;37.00;99820.84;4960950;28;20046;-81
2022/06/19 08:41:10;;;;;;;12.20;7.82;;;;;;;34.11;36.22;99816.47;4970529;28;20054;-79
2022/06/19 08:43:42;;;;;;;12.88;7.63;;;;;;;34.02;36.57;99812.22;4957083;28;20042;-80
2022/06/19 08:46:24;;;;;;;8.48;7.05;;;;;;;34.34;35.50;99812.56;4984593;28;20058;-82
2022/06/19 08:49:02;;;;;;;11.20;7.85;;;;;;;34.71;35.23;99811.19;4979631;28;20053;-81
2022/06/19 08:51:38;;;;;;;12.05;8.23;;;;;;;34.87;34.82;99794.31;5000476;22;20041;-80
2022/06/19 08:54:15;;;;;;;10.52;6.93;;;;;;;35.04;33.67;99796.69;5004481;28;20042;-81
2022/06/19 08:56:58;;;;;;;12.18;7.35;;;;;;;35.29;33.93;99799.63;5007668;28;20462;-81
2022/06/19 08:59:40;;;;;;;10.32;6.60;;;;;;;34.84;34.25;99793.91;4990986;28;20050;-79
2022/06/19 09:02:42;;;;;;;10.68;7.68;;;;;;;34.69;33.41;99781.22;5009286;28;20088;-80
2022/06/19 09:05:46;;;;;;;9.27;7.43;;;;;;;35.14;33.11;99789.69;4987417;28;20129;-80
2022/06/19 09:08:29;;;;;;;15.18;7.28;;;;;;;35.13;32.17;99788.00;5019509;28;20045;-79
2022/06/19 09:11:06;;;;;;;9.35;6.97;;;;;;;35.28;31.95;99807.00;4989993;28;20037;-80
2022/06/19 09:13:42;;;;;;;10.85;6.82;;;;;;;35.51;30.47;99810.19;5008306;28;20029;-80
2022/06/19 09:16:16;;;;;;;10.68;6.82;;;;;;;36.02;31.95;99809.44;5020664;28;20107;-82
2022/06/19 09:19:03;;;;;;;13.95;7.22;;;;;;;36.05;30.46;99814.50;4993438;28;20072;-81
2022/06/19 09:21:36;;;;;;;10.50;7.20;;;;;;;36.20;30.39;99802.38;4987239;28;20046;-80
2022/06/19 09:24:22;;;;;;;10.15;6.45;;;;;;;35.98;30.63;99805.44;5016134;28;20573;-80
2022/06/19 09:26:56;;;;;;;13.48;7.28;;;;;;;36.18;31.59;99815.53;5014677;28;20037;-79
2022/06/19 09:29:44;;;;;;;9.77;6.47;;;;;;;36.39;30.46;99806.13;5003841;28;20037;-79
2022/06/19 09:32:17;;;;;;;8.98;6.47;;;;;;;36.17;31.13;99794.59;5019079;28;20050;-79
2022/06/19 09:34:54;;;;;;;12.25;7.60;;;;;;;36.34;31.13;99807.59;5011988;28;20041;-81
2022/06/19 09:37:27;;;;;;;10.95;7.20;;;;;;;36.30;30.20;99794.50;5013135;28;20037;-80
2022/06/19 09:40:09;;;;;;;11.82;7.97;;;;;;;36.39;30.64;99782.19;4997255;28;20554;-79
2022/06/19 09:42:51;;;;;;;11.48;7.25;;;;;;;36.17;31.50;99780.84;4994294;28;20503;-79
2022/06/19 09:45:29;;;;;;;10.98;6.65;;;;;;;35.68;30.68;99772.09;5009306;28;20034;-80
2022/06/19 09:48:10;;;;;;;11.25;7.45;;;;;;;36.14;31.15;99756.50;4982138;28;20132;-81
2022/06/19 09:50:43;;;;;;;14.93;6.82;;;;;;;36.17;30.38;99761.59;4991191;28;20133;-80
2022/06/19 09:53:17;;;;;;;12.27;7.50;;;;;;;36.64;29.51;99752.81;4994353;28;20431;-80
2022/06/19 09:56:12;;;;;;;;;;;;;;;36.94;29.31;99743.94;4960881;28;20088;-81
2022/06/19 09:59:16;;;;;;;12.10;6.65;;;;;;;37.19;30.13;99752.19;4986646;28;20374;-80
2022/06/19 10:01:45;;;;;;;9.38;7.07;;;;;;;37.28;29.93;99752.75;4991579;28;20046;-81
2022/06/19 10:04:22;;;;;;;11.30;7.22;;;;;;;37.02;31.53;99754.69;4986195;28;20450;-81
2022/06/19 10:06:54;;;;;;;9.10;7.10;;;;;;;36.71;31.52;99743.69;4955766;28;20368;-80
2022/06/19 10:09:25;;;;;;;10.00;6.82;;;;;;;36.35;32.28;99753.44;4979632;28;20049;-81
2022/06/19 10:11:56;;;;;;;9.05;7.55;;;;;;;36.44;32.30;99756.78;5009192;28;20487;-81
2022/06/19 10:14:35;;;;;;;12.48;7.72;;;;;;;36.79;31.92;99755.25;4977693;28;22021;-82
2022/06/19 10:17:18;;;;;;;8.70;7.07;;;;;;;37.18;30.81;99767.03;4975323;28;20076;-81
2022/06/19 10:20:18;;;;;;;73.97;66.63;;;;;;;37.41;29.56;99758.97;4991487;28;20042;-81
2022/06/19 10:23:09;;;;;;;10.43;8.10;;;;;;;37.69;29.33;99760.38;4972626;28;20049;-80
2022/06/19 10:25:59;;;;;;;10.35;7.35;;;;;;;37.84;28.12;99760.00;4970182;28;20492;-81
2022/06/19 10:28:39;;;;;;;17.60;9.82;;;;;;;38.14;28.31;99752.59;4972294;28;20062;-80
2022/06/19 10:31:28;;;;;;;9.40;7.35;;;;;;;38.08;28.05;99759.03;5005392;28;20035;-82
2022/06/19 10:34:18;;;;;;;38.90;32.75;;;;;;;37.89;28.68;99755.47;4995666;28;20562;-81
2022/06/19 10:36:58;;;;;;;21.70;14.45;;;;;;;38.15;27.81;99757.03;5007023;28;20065;-81
2022/06/19 10:39:49;;;;;;;14.90;7.20;;;;;;;38.40;28.11;99753.34;4993785;28;20403;-81
2022/06/19 10:42:19;;;;;;;10.82;7.32;;;;;;;38.28;28.06;99756.06;4993764;28;20046;-81
2022/06/19 10:45:05;;;;;;;8.15;5.65;;;;;;;38.02;27.06;99752.56;4974369;28;20818;-81
2022/06/19 10:47:45;;;;;;;8.40;6.30;;;;;;;38.29;26.77;99753.06;4979099;28;20034;-82
2022/06/19 10:50:23;;;;;;;18.23;14.52;;;;;;;38.57;26.67;99746.06;4996795;28;20072;-81
2022/06/19 10:53:08;;;;;;;11.30;7.78;;;;;;;38.24;27.23;99755.69;4989920;28;20045;-81
2022/06/19 10:55:42;;;;;;;11.70;6.85;;;;;;;37.42;27.79;99751.56;4972144;28;20069;-81
2022/06/19 10:58:17;;;;;;;12.27;7.10;;;;;;;37.43;27.49;99745.00;4998025;28;20042;-80
2022/06/19 11:00:49;;;;;;;8.95;6.43;;;;;;;37.28;28.57;99741.72;4962984;28;20414;-81
2022/06/19 11:06:50;;;;;;;12.77;6.82;;;;;;;37.13;28.12;99731.06;5007688;28;20096;-82
2022/06/19 11:09:30;;;;;;;10.93;6.82;;;;;;;37.17;28.07;99718.53;4962981;28;20126;-80
2022/06/19 11:12:06;;;;;;;9.43;6.70;;;;;;;37.19;28.76;99733.75;4992199;28;20038;-81
2022/06/19 11:14:44;;;;;;;10.50;6.50;;;;;;;37.27;27.13;99727.09;4971611;28;20066;-79
2022/06/19 11:17:16;;;;;;;13.95;6.70;;;;;;;37.48;27.78;99726.69;5024531;28;20100;-80
2022/06/19 11:19:48;;;;;;;13.15;7.13;;;;;;;37.02;27.59;99715.28;4977662;28;20066;-81
2022/06/19 11:22:24;;;;;;;10.85;6.32;;;;;;;37.05;27.74;99725.84;4973128;28;20132;-79
2022/06/19 11:24:52;;;;;;;9.90;6.50;;;;;;;37.39;27.38;99728.06;4976029;28;20042;-78
2022/06/19 11:27:26;;;;;;;12.40;7.65;;;;;;;37.54;27.33;99743.38;4992631;28;20555;-77
2022/06/19 11:29:54;;;;;;;20.65;7.75;;;;;;;37.63;27.46;99744.75;4976084;28;20491;-79
2022/06/19 11:32:22;;;;;;;9.85;6.78;;;;;;;37.68;27.53;99740.25;5012357;28;20057;-79
2022/06/19 11:35:00;;;;;;;12.73;6.43;;;;;;;36.77;29.08;99735.38;4970830;28;20049;-79
2022/06/19 11:37:46;;;;;;;9.25;6.72;;;;;;;37.01;29.05;99754.91;5006011;28;20042;-79
2022/06/19 11:40:27;;;;;;;12.18;6.65;;;;;;;36.90;29.12;99768.31;4958353;28;20097;-79
2022/06/19 11:42:58;;;;;;;12.45;6.93;;;;;;;36.89;28.89;99769.38;5000923;28;20045;-79
2022/06/19 11:45:31;;;;;;;12.50;7.32;;;;;;;36.81;29.75;99766.03;4980297;28;20070;-78
2022/06/19 11:48:05;;;;;;;9.50;6.85;;;;;;;36.45;30.22;99772.22;4976446;28;20078;-79
2022/06/19 11:50:32;;;;;;;27.23;8.18;;;;;;;36.61;29.82;99790.97;4978583;28;20062;-78
2022/06/19 11:53:05;;;;;;;7.65;6.20;;;;;;;36.64;29.94;99782.25;4995563;28;20038;-79